Time;durP1;ratioP1;P1;durP2;ratioP2;P2;SDS_P1;SDS_P2;PMS_P1;PMS_P2;Temp;Humidity;BMP_temperature;BMP_pressure;BME280_temperature;BME280_humidity;BME280_pressure;Samples;Min_cycle;Max_cycle;Signal;HPM_P1;HPM_P2
2024/01/30 00:01:49;;;;;;;0.60;0.60;;;;;;;3.08;62.87;98877.38;5031693;28;20116;-76
2024/01/30 00:04:17;;;;;;;0.73;0.73;;;;;;;3.04;62.98;98875.91;5029425;28;20041;-77
2024/01/30 00:06:45;;;;;;;0.30;0.30;;;;;;;3.06;62.57;98872.22;5031333;28;20501;-74
2024/01/30 00:09:13;;;;;;;0.50;0.50;;;;;;;3.08;62.22;98878.22;5036054;28;20078;-76
2024/01/30 00:11:44;;;;;;;0.65;0.65;;;;;;;3.11;62.47;98879.78;5040553;28;20045;-76
2024/01/30 00:14:11;;;;;;;0.73;0.73;;;;;;;3.14;62.04;98885.66;5032128;28;20403;-77
2024/01/30 00:16:40;;;;;;;0.70;0.70;;;;;;;3.14;62.08;98879.53;5032961;28;20111;-77
2024/01/30 00:19:08;;;;;;;0.60;0.60;;;;;;;3.14;62.04;98882.19;5035326;28;20067;-75
2024/01/30 00:21:36;;;;;;;0.30;0.30;;;;;;;3.11;62.13;98891.19;5037558;28;20512;-74
2024/01/30 00:24:04;;;;;;;0.50;0.50;;;;;;;3.18;61.86;98886.28;5043554;28;20041;-75
2024/01/30 00:26:32;;;;;;;0.50;0.50;;;;;;;3.15;61.64;98886.50;5035411;28;20108;-75
2024/01/30 00:28:59;;;;;;;0.55;0.55;;;;;;;3.12;61.62;98884.09;5041329;28;20048;-76
2024/01/30 00:31:27;;;;;;;0.65;0.65;;;;;;;3.17;61.29;98892.50;5046947;28;20423;-75
2024/01/30 00:33:56;;;;;;;0.40;0.40;;;;;;;3.16;61.67;98888.19;5036813;28;20046;-75
2024/01/30 00:36:24;;;;;;;0.50;0.50;;;;;;;3.18;61.35;98886.28;5042040;28;20041;-73
2024/01/30 00:38:51;;;;;;;0.65;0.65;;;;;;;3.23;61.15;98877.03;5039373;28;20055;-75
2024/01/30 00:41:19;;;;;;;0.70;0.70;;;;;;;3.29;61.17;98886.31;5034652;28;20139;-73
2024/01/30 00:43:47;;;;;;;0.60;0.60;;;;;;;3.17;61.55;98879.31;5033970;28;20090;-74
2024/01/30 00:46:14;;;;;;;0.68;0.68;;;;;;;3.13;61.66;98888.41;5028165;28;20050;-74
2024/01/30 00:48:42;;;;;;;0.68;0.68;;;;;;;3.15;61.59;98883.84;5031232;28;20128;-74
2024/01/30 00:51:11;;;;;;;0.43;0.43;;;;;;;3.12;61.18;98882.28;5039763;28;20126;-74
2024/01/30 00:53:38;;;;;;;0.45;0.45;;;;;;;3.17;61.30;98882.78;5042685;28;20037;-74
2024/01/30 00:56:07;;;;;;;0.65;0.65;;;;;;;3.16;61.46;98885.53;5041098;28;20496;-75
2024/01/30 00:58:35;;;;;;;0.57;0.57;;;;;;;3.15;61.38;98886.50;5035729;28;20049;-74
2024/01/30 01:01:03;;;;;;;0.82;0.82;;;;;;;3.17;61.05;98879.31;5033899;28;20504;-75
2024/01/30 01:03:31;;;;;;;0.65;0.65;;;;;;;3.16;61.15;98881.09;5032597;28;20045;-75
2024/01/30 01:05:58;;;;;;;0.63;0.63;;;;;;;3.13;61.35;98873.41;5031204;28;20041;-75
2024/01/30 01:08:27;;;;;;;0.68;0.68;;;;;;;3.14;61.45;98888.28;5027723;28;20099;-74
2024/01/30 01:10:55;;;;;;;0.40;0.40;;;;;;;3.15;61.27;98887.34;5031319;28;20056;-75
2024/01/30 01:13:22;;;;;;;0.90;0.90;;;;;;;3.15;61.17;98875.94;5029724;28;20044;-75
2024/01/30 01:15:50;;;;;;;0.52;0.52;;;;;;;3.17;60.80;98874.03;5031326;28;20072;-74
2024/01/30 01:18:17;;;;;;;0.80;0.80;;;;;;;3.12;61.10;98877.00;5033993;28;20061;-75
2024/01/30 01:20:45;;;;;;;0.60;0.60;;;;;;;3.08;61.39;98870.31;5030288;28;20107;-73
2024/01/30 01:23:13;;;;;;;0.40;0.40;;;;;;;3.11;61.14;98870.09;5039883;28;20051;-74
2024/01/30 01:25:41;;;;;;;0.63;0.63;;;;;;;3.12;61.12;98863.81;5022901;28;20046;-73
2024/01/30 01:28:09;;;;;;;0.60;0.60;;;;;;;3.11;61.38;98858.69;5040025;28;20049;-73
2024/01/30 01:30:37;;;;;;;0.52;0.50;;;;;;;3.14;60.55;98861.91;5040674;28;20052;-73
2024/01/30 01:33:06;;;;;;;0.40;0.40;;;;;;;3.12;61.15;98860.34;5038381;28;20041;-73
2024/01/30 01:35:34;;;;;;;0.55;0.55;;;;;;;3.19;60.33;98851.88;5031458;28;20467;-72
2024/01/30 01:38:02;;;;;;;0.30;0.30;;;;;;;3.18;60.40;98855.47;5038667;28;20041;-73
2024/01/30 01:40:30;;;;;;;0.73;0.73;;;;;;;3.18;60.28;98860.75;5037878;28;20435;-74
2024/01/30 01:42:59;;;;;;;0.43;0.43;;;;;;;3.28;59.87;98850.31;5029916;28;20045;-74
2024/01/30 01:45:26;;;;;;;0.38;0.38;;;;;;;3.32;59.79;98852.59;5035796;28;20136;-73
2024/01/30 01:47:54;;;;;;;0.40;0.40;;;;;;;3.33;59.74;98853.44;5031607;28;20056;-74
2024/01/30 01:50:22;;;;;;;0.47;0.47;;;;;;;3.29;59.62;98842.28;5040316;28;20305;-74
2024/01/30 01:52:51;;;;;;;0.45;0.45;;;;;;;3.38;59.33;98845.19;5039250;28;20041;-74
2024/01/30 01:55:24;;;;;;;0.38;0.38;;;;;;;3.43;59.35;98843.00;5042590;28;20051;-74
2024/01/30 01:57:53;;;;;;;0.40;0.40;;;;;;;3.31;59.60;98842.19;5036665;28;20124;-74
2024/01/30 02:00:22;;;;;;;0.40;0.40;;;;;;;3.22;60.28;98848.97;5028892;28;20111;-73
2024/01/30 02:02:50;;;;;;;0.40;0.40;;;;;;;3.20;60.23;98848.28;5030662;28;20064;-73
2024/01/30 02:05:18;;;;;;;0.63;0.63;;;;;;;3.18;60.58;98839.63;5036021;28;20044;-75
2024/01/30 02:07:46;;;;;;;0.40;0.40;;;;;;;3.16;60.52;98838.06;5032567;28;20093;-75
2024/01/30 02:10:14;;;;;;;0.40;0.40;;;;;;;3.20;60.55;98834.25;5030155;28;20049;-77
2024/01/30 02:12:42;;;;;;;0.55;0.55;;;;;;;3.17;60.76;98842.38;5029838;28;20128;-76
2024/01/30 02:15:14;;;;;;;0.40;0.40;;;;;;;3.07;61.10;98836.97;5021744;28;20047;-74
2024/01/30 02:17:45;;;;;;;0.50;0.50;;;;;;;3.04;61.68;98825.81;5030393;28;20124;-74
2024/01/30 02:20:13;;;;;;;0.60;0.60;;;;;;;3.01;61.85;98836.63;5028832;28;20038;-74
2024/01/30 02:22:43;;;;;;;0.50;0.50;;;;;;;2.90;62.19;98830.34;5030893;28;20048;-73
2024/01/30 02:25:11;;;;;;;0.52;0.52;;;;;;;2.91;62.32;98836.44;5030744;28;20044;-73
2024/01/30 02:27:39;;;;;;;0.47;0.47;;;;;;;2.85;62.63;98836.91;5022407;28;20578;-73
2024/01/30 02:30:08;;;;;;;0.63;0.63;;;;;;;2.93;62.20;98827.47;5029418;28;20054;-74
2024/01/30 02:32:35;;;;;;;0.57;0.57;;;;;;;2.91;61.92;98826.75;5035375;28;20077;-73
2024/01/30 02:35:03;;;;;;;0.50;0.50;;;;;;;2.93;61.95;98831.91;5046455;28;20038;-74
2024/01/30 02:37:31;;;;;;;0.80;0.80;;;;;;;2.88;62.27;98831.44;5036704;28;20041;-75
2024/01/30 02:40:00;;;;;;;0.25;0.25;;;;;;;2.91;62.49;98828.53;5036817;28;20492;-75
2024/01/30 02:42:27;;;;;;;0.35;0.35;;;;;;;2.91;62.35;98820.63;5036934;28;20103;-74
2024/01/30 02:44:55;;;;;;;0.50;0.50;;;;;;;3.00;62.02;98834.94;5035191;28;20128;-74
2024/01/30 02:47:23;;;;;;;0.50;0.50;;;;;;;2.96;62.49;98829.03;5032516;28;20041;-75
2024/01/30 02:49:51;;;;;;;0.68;0.68;;;;;;;2.95;62.46;98827.34;5037413;28;20052;-74
2024/01/30 02:52:22;;;;;;;0.40;0.40;;;;;;;2.97;62.60;98828.09;5040235;28;20167;-74
2024/01/30 02:54:50;;;;;;;0.50;0.50;;;;;;;2.83;63.13;98829.13;5036315;28;20049;-74
2024/01/30 02:57:19;;;;;;;0.45;0.45;;;;;;;2.80;63.30;98824.06;5034536;28;20562;-73
2024/01/30 02:59:46;;;;;;;0.50;0.50;;;;;;;2.82;63.28;98831.88;5029768;28;20059;-74
2024/01/30 03:02:14;;;;;;;0.40;0.40;;;;;;;2.79;63.33;98826.84;5033975;28;20038;-75
2024/01/30 03:04:41;;;;;;;0.60;0.60;;;;;;;2.76;63.45;98829.72;5040326;28;20048;-77
2024/01/30 03:07:09;;;;;;;0.57;0.57;;;;;;;2.80;63.43;98824.06;5042115;28;20052;-76
2024/01/30 03:09:37;;;;;;;0.75;0.63;;;;;;;2.76;63.69;98825.28;5029056;28;20127;-75
2024/01/30 03:12:05;;;;;;;0.77;0.77;;;;;;;2.75;63.71;98820.97;5040085;28;20946;-74
2024/01/30 03:14:38;;;;;;;;;;;;;;;2.72;63.88;98817.69;5040903;28;20049;-75
2024/01/30 03:17:06;;;;;;;0.77;0.77;;;;;;;2.76;63.82;98821.81;5043124;28;19928;-75
2024/01/30 03:19:34;;;;;;;0.63;0.63;;;;;;;2.82;63.52;98813.41;5027408;28;20493;-75
2024/01/30 03:22:04;;;;;;;0.60;0.60;;;;;;;2.76;63.69;98809.47;5046521;28;20077;-75
2024/01/30 03:24:31;;;;;;;0.75;0.75;;;;;;;2.75;63.98;98807.78;5041322;28;20041;-74
2024/01/30 03:26:59;;;;;;;0.73;0.73;;;;;;;2.68;64.04;98809.22;5032856;28;20491;-74
2024/01/30 03:29:26;;;;;;;0.45;0.45;;;;;;;2.67;63.91;98807.53;5030408;28;20050;-76
2024/01/30 03:31:56;;;;;;;0.55;0.55;;;;;;;2.74;64.01;98811.38;5035270;28;20103;-74
2024/01/30 03:34:23;;;;;;;0.50;0.50;;;;;;;2.74;63.94;98803.47;5042763;28;20038;-74
2024/01/30 03:36:51;;;;;;;0.73;0.73;;;;;;;2.68;64.18;98811.00;5036326;28;20212;-72
2024/01/30 03:39:18;;;;;;;0.63;0.63;;;;;;;2.65;64.32;98801.53;5041320;28;20432;-75
2024/01/30 03:41:46;;;;;;;0.40;0.40;;;;;;;2.62;64.61;98803.53;5032575;28;20065;-76
2024/01/30 03:44:13;;;;;;;0.60;0.60;;;;;;;2.65;64.62;98809.44;5027249;28;20041;-74
2024/01/30 03:46:41;;;;;;;0.35;0.35;;;;;;;2.67;64.60;98806.69;5032564;28;20045;-73
2024/01/30 03:49:10;;;;;;;0.57;0.50;;;;;;;2.79;64.21;98805.75;5036158;28;20128;-76
2024/01/30 03:51:38;;;;;;;0.50;0.50;;;;;;;2.72;64.49;98804.53;5044706;28;20052;-74
2024/01/30 03:54:05;;;;;;;0.88;0.88;;;;;;;2.68;64.60;98803.09;5038311;28;20046;-73
2024/01/30 03:56:33;;;;;;;0.50;0.50;;;;;;;2.66;64.81;98797.94;5032314;28;20041;-74
2024/01/30 03:59:02;;;;;;;0.65;0.65;;;;;;;2.63;65.01;98792.03;5033560;28;20120;-74
2024/01/30 04:01:30;;;;;;;0.63;0.63;;;;;;;2.62;64.93;98799.09;5036754;28;20052;-76
2024/01/30 04:03:57;;;;;;;0.40;0.40;;;;;;;2.57;65.02;98790.72;5032910;28;20050;-72
2024/01/30 04:06:27;;;;;;;0.70;0.70;;;;;;;2.53;65.23;98784.00;5030821;28;20121;-76
2024/01/30 04:08:54;;;;;;;0.57;0.57;;;;;;;2.58;65.24;98787.97;5040084;28;20121;-74
2024/01/30 04:11:22;;;;;;;0.43;0.43;;;;;;;2.54;65.26;98781.25;5026629;28;20037;-76
2024/01/30 04:13:50;;;;;;;0.40;0.40;;;;;;;2.52;65.54;98771.75;5033878;28;20128;-73
2024/01/30 04:16:21;;;;;;;0.65;0.65;;;;;;;2.50;65.53;98778.94;5036907;28;20392;-74
2024/01/30 04:18:49;;;;;;;0.85;0.85;;;;;;;2.51;65.59;98778.81;5037751;28;20052;-76
2024/01/30 04:21:16;;;;;;;0.55;0.55;;;;;;;2.45;65.79;98767.91;5032140;28;20080;-76
2024/01/30 04:23:45;;;;;;;0.40;0.40;;;;;;;2.40;66.04;98778.78;5028094;28;20052;-73
2024/01/30 04:26:13;;;;;;;0.40;0.40;;;;;;;2.39;66.06;98774.47;5044518;28;20116;-75
2024/01/30 04:28:42;;;;;;;0.73;0.73;;;;;;;2.47;65.76;98774.75;5044809;28;20051;-74
2024/01/30 04:31:09;;;;;;;0.68;0.68;;;;;;;2.46;65.78;98769.59;5033913;28;20052;-75
2024/01/30 04:33:37;;;;;;;0.43;0.43;;;;;;;2.47;65.92;98756.31;5037087;28;20407;-76
2024/01/30 04:36:08;;;;;;;0.63;0.63;;;;;;;2.47;65.88;98758.97;5042505;28;20445;-74
2024/01/30 04:38:36;;;;;;;0.80;0.80;;;;;;;2.49;65.73;98759.66;5038799;28;20048;-75
2024/01/30 04:41:05;;;;;;;0.60;0.60;;;;;;;2.49;65.44;98757.03;5032309;28;20038;-75
2024/01/30 04:43:33;;;;;;;0.60;0.60;;;;;;;2.50;65.58;98756.06;5033439;28;20045;-74
2024/01/30 04:46:00;;;;;;;0.50;0.50;;;;;;;2.51;65.62;98744.56;5031913;28;20052;-76
2024/01/30 04:48:28;;;;;;;0.73;0.73;;;;;;;2.58;65.11;98743.19;5029130;28;20041;-76
2024/01/30 04:50:56;;;;;;;0.60;0.60;;;;;;;2.57;65.24;98741.50;5030828;28;20045;-77
2024/01/30 04:53:24;;;;;;;0.63;0.63;;;;;;;2.54;64.79;98746.16;5036664;28;20045;-75
2024/01/30 04:55:51;;;;;;;0.73;0.73;;;;;;;2.50;64.75;98740.25;5046924;28;20484;-75
2024/01/30 04:58:20;;;;;;;0.73;0.73;;;;;;;2.55;64.77;98740.78;5036173;28;20095;-74
2024/01/30 05:00:51;;;;;;;0.40;0.40;;;;;;;2.60;64.70;98736.97;5027085;28;20511;-75
2024/01/30 05:03:20;;;;;;;0.50;0.50;;;;;;;2.56;64.88;98737.19;5044081;28;20120;-73
2024/01/30 05:05:47;;;;;;;0.55;0.55;;;;;;;2.50;64.89;98742.06;5027158;28;20088;-73
2024/01/30 05:08:15;;;;;;;0.50;0.50;;;;;;;2.54;64.79;98738.25;5034568;28;20049;-74
2024/01/30 05:10:42;;;;;;;0.50;0.50;;;;;;;2.54;65.07;98733.81;5029788;28;20060;-74
2024/01/30 05:13:10;;;;;;;0.60;0.60;;;;;;;2.51;65.05;98738.47;5037943;28;20049;-73
2024/01/30 05:15:39;;;;;;;0.40;0.40;;;;;;;2.48;65.42;98738.72;5030325;28;20132;-73
2024/01/30 05:18:07;;;;;;;0.55;0.55;;;;;;;2.47;65.55;98742.31;5039683;28;20049;-73
2024/01/30 05:20:34;;;;;;;0.30;0.30;;;;;;;2.43;65.46;98731.16;5035343;28;20067;-73
2024/01/30 05:23:02;;;;;;;0.50;0.50;;;;;;;2.41;65.71;98740.97;5027516;28;20057;-73
2024/01/30 05:25:29;;;;;;;0.43;0.43;;;;;;;2.44;65.50;98743.38;5045337;28;20112;-73
2024/01/30 05:27:57;;;;;;;0.63;0.63;;;;;;;2.46;65.65;98749.38;5024094;28;20038;-73
2024/01/30 05:30:25;;;;;;;0.38;0.38;;;;;;;2.43;65.74;98752.22;5034884;28;20052;-76
2024/01/30 05:32:54;;;;;;;0.80;0.80;;;;;;;2.45;65.71;98744.22;5039578;28;20037;-73
2024/01/30 05:35:21;;;;;;;0.32;0.32;;;;;;;2.53;65.36;98744.47;5020329;28;20115;-72
2024/01/30 05:37:48;;;;;;;;;;;;;;;2.51;65.40;98755.13;5034248;28;20038;-72
2024/01/30 05:40:16;;;;;;;0.52;0.52;;;;;;;2.57;65.31;98752.03;5038886;28;19920;-71
2024/01/30 05:42:44;;;;;;;0.52;0.52;;;;;;;2.62;65.13;98740.28;5037111;28;20036;-72
2024/01/30 05:45:12;;;;;;;0.50;0.50;;;;;;;2.67;64.83;98748.69;5027134;28;20468;-72
2024/01/30 05:47:40;;;;;;;0.50;0.50;;;;;;;2.73;64.45;98754.34;5034129;28;20045;-72
2024/01/30 05:50:09;;;;;;;0.40;0.40;;;;;;;2.76;64.41;98756.75;5033512;28;20497;-74
2024/01/30 05:52:37;;;;;;;0.65;0.65;;;;;;;2.82;64.21;98755.44;5035330;28;20123;-72
2024/01/30 05:55:05;;;;;;;0.50;0.50;;;;;;;2.84;64.11;98761.41;5030369;28;20049;-74
2024/01/30 05:57:33;;;;;;;0.50;0.50;;;;;;;2.87;63.74;98758.56;5033375;28;20045;-74
2024/01/30 06:00:00;;;;;;;0.55;0.50;;;;;;;2.81;64.26;98754.59;5033924;28;20033;-75
2024/01/30 06:02:31;;;;;;;0.95;0.80;;;;;;;2.80;64.21;98766.09;5028938;28;20132;-74
2024/01/30 06:04:59;;;;;;;0.77;0.77;;;;;;;2.79;64.26;98750.41;5038917;28;20424;-74
2024/01/30 06:07:28;;;;;;;0.50;0.50;;;;;;;2.79;64.32;98763.59;5034331;28;20041;-74
2024/01/30 06:10:01;;;;;;;0.40;0.40;;;;;;;2.77;64.66;98760.22;5024779;28;20045;-71
2024/01/30 06:12:29;;;;;;;0.52;0.52;;;;;;;2.75;64.75;98767.41;5026702;28;20052;-73
2024/01/30 06:14:57;;;;;;;0.60;0.60;;;;;;;2.79;64.69;98780.25;5036986;28;20068;-75
2024/01/30 06:17:25;;;;;;;0.65;0.65;;;;;;;2.74;65.02;98778.91;5028081;28;20051;-75
2024/01/30 06:19:52;;;;;;;0.82;0.82;;;;;;;2.68;65.15;98779.38;5030403;28;20534;-75
2024/01/30 06:22:20;;;;;;;0.30;0.30;;;;;;;2.59;65.46;98783.56;5028127;28;20055;-73
2024/01/30 06:24:49;;;;;;;0.55;0.55;;;;;;;2.65;65.47;98779.59;5038084;28;20098;-73
2024/01/30 06:27:17;;;;;;;0.40;0.40;;;;;;;2.56;65.64;98789.03;5031147;28;20765;-73
2024/01/30 06:29:45;;;;;;;0.50;0.45;;;;;;;2.63;65.57;98798.16;5043786;28;20282;-73
2024/01/30 06:32:12;;;;;;;0.80;0.80;;;;;;;2.66;65.29;98795.28;5037179;28;20049;-73
2024/01/30 06:34:43;;;;;;;0.65;0.65;;;;;;;2.61;65.64;98791.31;5032602;28;20046;-73
2024/01/30 06:37:11;;;;;;;0.52;0.52;;;;;;;2.64;65.65;98789.28;5035700;28;20044;-73
2024/01/30 06:39:38;;;;;;;0.68;0.68;;;;;;;2.61;65.85;98796.56;5033564;28;20049;-73
2024/01/30 06:42:10;;;;;;;0.50;0.50;;;;;;;2.70;65.50;98791.47;5029800;28;20104;-73
2024/01/30 06:44:38;;;;;;;0.52;0.52;;;;;;;2.68;65.58;98792.56;5039306;28;20060;-73
2024/01/30 06:47:06;;;;;;;0.60;0.60;;;;;;;2.72;65.41;98788.72;5029185;28;20037;-73
2024/01/30 06:49:33;;;;;;;0.52;0.52;;;;;;;2.73;65.31;98793.03;5019518;28;20520;-73
2024/01/30 06:52:01;;;;;;;0.73;0.73;;;;;;;2.73;65.40;98803.56;5030357;28;20045;-73
2024/01/30 06:54:29;;;;;;;0.55;0.55;;;;;;;2.74;65.32;98802.63;5039723;28;20443;-74
2024/01/30 06:56:56;;;;;;;0.82;0.82;;;;;;;2.82;65.34;98806.34;5037055;28;20037;-73
2024/01/30 06:59:25;;;;;;;0.50;0.50;;;;;;;2.67;65.63;98806.69;5028849;28;20045;-73
2024/01/30 07:01:53;;;;;;;0.63;0.63;;;;;;;2.64;65.98;98805.09;5037734;28;20060;-74
2024/01/30 07:04:21;;;;;;;0.45;0.45;;;;;;;2.60;66.08;98800.19;5031799;28;20400;-73
2024/01/30 07:06:48;;;;;;;0.52;0.52;;;;;;;2.61;65.96;98802.69;5035337;28;20037;-73
2024/01/30 07:09:16;;;;;;;0.65;0.65;;;;;;;2.61;65.80;98799.22;5032767;28;20061;-73
2024/01/30 07:11:44;;;;;;;0.50;0.50;;;;;;;2.64;66.11;98804.25;5028101;28;20049;-74
2024/01/30 07:14:11;;;;;;;0.65;0.65;;;;;;;2.70;65.72;98804.63;5032203;28;20403;-73
2024/01/30 07:16:40;;;;;;;0.43;0.43;;;;;;;2.71;66.33;98808.94;5030416;28;20492;-74
2024/01/30 07:19:09;;;;;;;0.73;0.73;;;;;;;2.73;65.68;98811.47;5029938;28;20050;-74
2024/01/30 07:21:37;;;;;;;0.65;0.65;;;;;;;2.82;65.60;98808.97;5027623;28;20052;-74
2024/01/30 07:24:04;;;;;;;0.30;0.30;;;;;;;2.83;65.55;98815.09;5035184;28;20045;-74
2024/01/30 07:26:32;;;;;;;0.40;0.40;;;;;;;2.86;65.37;98810.44;5037601;28;20047;-74
2024/01/30 07:28:59;;;;;;;0.50;0.50;;;;;;;2.89;65.38;98812.84;5040593;28;20045;-74
2024/01/30 07:31:27;;;;;;;0.70;0.70;;;;;;;2.85;65.27;98810.56;5031106;28;20045;-74
2024/01/30 07:33:59;;;;;;;0.70;0.70;;;;;;;2.84;65.93;98814.16;5041726;28;20056;-73
2024/01/30 07:36:26;;;;;;;0.65;0.52;;;;;;;2.82;65.99;98811.63;5028159;28;20109;-74
2024/01/30 07:38:55;;;;;;;0.40;0.40;;;;;;;2.86;65.55;98822.78;5032810;28;20148;-74
2024/01/30 07:41:22;;;;;;;0.60;0.60;;;;;;;3.01;65.46;98821.59;5040660;28;20303;-74
2024/01/30 07:43:50;;;;;;;0.50;0.50;;;;;;;2.95;65.40;98827.34;5033091;28;20420;-77
2024/01/30 07:46:18;;;;;;;0.32;0.32;;;;;;;2.93;65.45;98824.00;5032726;28;20049;-74
2024/01/30 07:48:45;;;;;;;0.57;0.57;;;;;;;2.93;65.46;98809.00;5025213;28;20050;-76
2024/01/30 07:51:14;;;;;;;0.70;0.70;;;;;;;2.89;65.41;98820.78;5030230;28;20041;-75
2024/01/30 07:53:42;;;;;;;0.40;0.40;;;;;;;2.83;65.67;98818.56;5027631;28;20056;-76
2024/01/30 07:56:10;;;;;;;0.60;0.60;;;;;;;2.92;65.49;98820.50;5041188;28;20048;-75
2024/01/30 07:58:40;;;;;;;0.73;0.73;;;;;;;3.03;64.79;98810.94;5042319;28;20033;-74
2024/01/30 08:01:08;;;;;;;0.55;0.55;;;;;;;2.98;64.78;98811.31;5042790;28;20041;-76
2024/01/30 08:03:36;;;;;;;0.38;0.38;;;;;;;3.01;64.75;98811.06;5041486;28;20049;-75
2024/01/30 08:06:04;;;;;;;0.75;0.75;;;;;;;3.02;64.92;98812.75;5040877;28;20438;-76
2024/01/30 08:08:33;;;;;;;0.70;0.60;;;;;;;3.11;64.29;98811.22;5031532;28;20045;-75
2024/01/30 08:11:01;;;;;;;0.50;0.50;;;;;;;3.20;64.10;98818.44;5026395;28;20303;-74
2024/01/30 08:13:28;;;;;;;0.47;0.47;;;;;;;3.20;64.15;98816.63;5028708;28;20055;-76
2024/01/30 08:15:56;;;;;;;0.57;0.57;;;;;;;3.24;64.02;98817.22;5028685;28;20439;-76
2024/01/30 08:18:24;;;;;;;0.63;0.63;;;;;;;3.33;63.61;98819.13;5031233;28;20127;-74
2024/01/30 08:20:51;;;;;;;0.63;0.63;;;;;;;3.32;63.93;98812.22;5039161;28;20045;-76
2024/01/30 08:23:19;;;;;;;0.57;0.57;;;;;;;3.40;63.29;98819.53;5033163;28;20107;-74
2024/01/30 08:25:48;;;;;;;0.40;0.40;;;;;;;3.43;63.08;98820.09;5026896;28;20412;-74
2024/01/30 08:28:15;;;;;;;0.70;0.70;;;;;;;3.47;63.40;98816.28;5034410;28;20075;-73
2024/01/30 08:30:47;;;;;;;0.63;0.63;;;;;;;3.54;62.95;98814.81;5032800;28;20592;-75
2024/01/30 08:33:15;;;;;;;0.38;0.38;;;;;;;3.57;62.84;98814.59;5033245;28;20081;-74
2024/01/30 08:35:43;;;;;;;0.57;0.57;;;;;;;3.64;62.14;98817.56;5032430;28;20056;-74
2024/01/30 08:38:12;;;;;;;0.60;0.60;;;;;;;3.62;62.67;98815.09;5039409;28;20412;-76
2024/01/30 08:40:40;;;;;;;0.60;0.60;;;;;;;3.62;62.67;98811.59;5043700;28;20377;-75
2024/01/30 08:43:10;;;;;;;0.80;0.60;;;;;;;3.68;62.35;98817.22;5036133;28;20048;-74
2024/01/30 08:45:37;;;;;;;0.43;0.43;;;;;;;3.67;62.58;98799.72;5033904;28;20056;-75
2024/01/30 08:48:05;;;;;;;0.52;0.52;;;;;;;3.72;62.07;98804.63;5025207;28;20073;-76
2024/01/30 08:50:33;;;;;;;0.40;0.38;;;;;;;3.78;61.76;98805.94;5046064;28;20055;-74
2024/01/30 08:53:00;;;;;;;0.70;0.70;;;;;;;3.93;61.72;98810.00;5030566;28;20041;-74
2024/01/30 08:55:28;;;;;;;0.65;0.65;;;;;;;3.93;61.13;98813.50;5031666;28;20121;-74
2024/01/30 08:57:56;;;;;;;0.40;0.40;;;;;;;3.95;61.27;98816.81;5030607;28;20042;-75
2024/01/30 09:00:25;;;;;;;0.68;0.68;;;;;;;4.00;61.16;98811.19;5034512;28;20048;-74
2024/01/30 09:02:53;;;;;;;0.60;0.60;;;;;;;4.00;61.27;98806.75;5038680;28;20057;-73
2024/01/30 09:05:20;;;;;;;0.73;0.73;;;;;;;4.00;61.50;98808.53;5032469;28;20401;-74
2024/01/30 09:07:48;;;;;;;0.50;0.50;;;;;;;3.99;61.32;98805.06;5027971;28;20508;-75
2024/01/30 09:10:16;;;;;;;0.50;0.50;;;;;;;4.01;61.75;98805.78;5038473;28;20139;-75
2024/01/30 09:12:47;;;;;;;1.50;0.70;;;;;;;4.08;61.45;98811.41;5032809;28;20049;-74
2024/01/30 09:15:15;;;;;;;0.80;0.80;;;;;;;4.09;61.46;98799.88;5033438;28;20120;-74
2024/01/30 09:17:44;;;;;;;0.80;0.80;;;;;;;4.10;61.11;98801.56;5030933;28;20043;-74
2024/01/30 09:20:12;;;;;;;0.65;0.65;;;;;;;4.13;61.67;98797.84;5032908;28;20049;-74
2024/01/30 09:22:40;;;;;;;0.73;0.73;;;;;;;4.18;61.51;98785.91;5040575;28;20055;-74
2024/01/30 09:25:08;;;;;;;0.50;0.40;;;;;;;4.21;61.38;98788.31;5044979;28;20499;-74
2024/01/30 09:27:35;;;;;;;0.50;0.50;;;;;;;4.27;61.49;98792.25;5027269;28;20048;-74
2024/01/30 09:30:03;;;;;;;0.65;0.65;;;;;;;4.33;61.31;98794.41;5030362;28;20079;-75
2024/01/30 09:32:31;;;;;;;0.50;0.50;;;;;;;4.43;61.14;98795.31;5029555;28;20045;-75
2024/01/30 09:35:00;;;;;;;0.43;0.43;;;;;;;4.47;61.07;98794.09;5025609;28;20049;-74
2024/01/30 09:37:27;;;;;;;0.70;0.70;;;;;;;4.55;60.97;98789.03;5043413;28;20113;-74
2024/01/30 09:39:55;;;;;;;0.65;0.65;;;;;;;4.62;60.78;98798.13;5031174;28;20052;-74
2024/01/30 09:42:29;;;;;;;0.57;0.57;;;;;;;4.73;60.64;98782.19;5029943;28;20080;-74
2024/01/30 09:44:57;;;;;;;0.93;0.93;;;;;;;4.76;60.32;98784.59;5036225;28;20084;-74
2024/01/30 09:47:25;;;;;;;0.50;0.50;;;;;;;4.82;60.27;98779.75;5025411;28;20111;-76
2024/01/30 09:49:53;;;;;;;0.50;0.50;;;;;;;4.86;60.13;98778.53;5041270;28;20079;-76
2024/01/30 09:52:22;;;;;;;0.50;0.50;;;;;;;4.91;60.18;98779.81;5029503;28;20073;-74
2024/01/30 09:54:50;;;;;;;0.40;0.40;;;;;;;4.96;60.12;98779.44;5023177;28;20075;-73
2024/01/30 09:57:18;;;;;;;0.55;0.55;;;;;;;5.05;60.02;98778.66;5041580;28;20041;-73
2024/01/30 09:59:45;;;;;;;0.50;0.50;;;;;;;5.08;59.72;98781.03;5030760;28;20038;-76
2024/01/30 10:02:13;;;;;;;0.80;0.80;;;;;;;5.13;59.84;98776.19;5028563;28;20045;-76
2024/01/30 10:04:41;;;;;;;0.40;0.40;;;;;;;5.15;59.41;98788.31;5033210;28;20406;-73
2024/01/30 10:07:10;;;;;;;0.47;0.47;;;;;;;5.11;59.40;98767.53;5032491;28;20073;-74
2024/01/30 10:09:39;;;;;;;0.32;0.32;;;;;;;5.14;59.38;98780.50;5035995;28;20473;-75
2024/01/30 10:12:08;;;;;;;0.40;0.40;;;;;;;5.24;59.40;98793.78;5029761;28;20041;-76
2024/01/30 10:14:38;;;;;;;0.40;0.40;;;;;;;5.25;59.53;98776.94;5034968;28;20354;-76
2024/01/30 10:17:07;;;;;;;0.57;0.57;;;;;;;5.28;59.33;98785.47;5025364;28;20084;-72
2024/01/30 10:19:48;;;;;;;0.85;0.85;;;;;;;5.31;59.25;98781.69;5029932;28;20042;-76
2024/01/30 10:22:15;;;;;;;0.73;0.73;;;;;;;5.35;59.09;98783.13;5028939;28;20077;-76
2024/01/30 10:24:45;;;;;;;0.52;0.52;;;;;;;5.34;59.46;98771.69;5034888;28;20528;-75
2024/01/30 10:27:13;;;;;;;0.47;0.47;;;;;;;5.39;59.30;98776.59;5029768;28;20041;-76
2024/01/30 10:29:40;;;;;;;0.60;0.45;;;;;;;5.45;59.06;98766.31;5027106;28;20137;-75
2024/01/30 10:32:08;;;;;;;0.30;0.30;;;;;;;5.42;58.96;98761.25;5029503;28;20045;-75
2024/01/30 10:34:36;;;;;;;0.60;0.60;;;;;;;5.43;59.11;98768.25;5035883;28;20044;-76
2024/01/30 10:37:12;;;;;;;0.40;0.40;;;;;;;5.45;58.97;98763.66;5038880;28;20056;-75
2024/01/30 10:39:40;;;;;;;0.80;0.50;;;;;;;5.48;59.01;98758.09;5038189;28;20055;-73
2024/01/30 10:42:12;;;;;;;0.47;0.47;;;;;;;5.49;59.03;98754.47;5031184;28;20065;-74
2024/01/30 10:44:45;;;;;;;0.57;0.57;;;;;;;5.50;58.89;98756.13;5037789;28;20065;-75
2024/01/30 10:47:14;;;;;;;0.40;0.30;;;;;;;5.52;59.04;98751.56;5027420;28;20045;-75
2024/01/30 10:49:42;;;;;;;0.40;0.40;;;;;;;5.58;58.93;98754.66;5022370;28;20056;-75
2024/01/30 10:52:11;;;;;;;0.35;0.35;;;;;;;5.61;58.94;98757.84;5027496;28;20500;-75
2024/01/30 10:54:41;;;;;;;0.40;0.40;;;;;;;5.67;58.80;98743.25;5035227;28;20049;-76
2024/01/30 10:57:11;;;;;;;0.52;0.52;;;;;;;5.62;59.03;98748.94;5037251;28;20052;-76
2024/01/30 10:59:39;;;;;;;0.65;0.65;;;;;;;5.69;59.06;98747.44;5030762;28;20037;-74
2024/01/30 11:02:07;;;;;;;1.90;0.65;;;;;;;5.75;59.26;98746.03;5036734;28;20043;-73
2024/01/30 11:04:38;;;;;;;0.40;0.40;;;;;;;5.78;58.97;98751.06;5029211;28;20400;-74
2024/01/30 11:07:15;;;;;;;0.57;0.57;;;;;;;5.82;59.14;98747.16;5047208;28;20451;-75
2024/01/30 11:09:49;;;;;;;0.43;0.43;;;;;;;5.88;58.98;98744.88;5032021;28;20120;-74
2024/01/30 11:12:22;;;;;;;0.40;0.40;;;;;;;5.98;59.07;98739.56;5033472;28;20076;-74
2024/01/30 11:14:50;;;;;;;0.30;0.30;;;;;;;5.99;59.13;98735.97;5036752;28;20201;-74
2024/01/30 11:17:18;;;;;;;0.40;0.40;;;;;;;6.03;59.08;98739.16;5037075;28;20073;-74
2024/01/30 11:19:47;;;;;;;0.35;0.35;;;;;;;6.09;59.10;98739.44;5043249;28;20041;-74
2024/01/30 11:22:15;;;;;;;0.52;0.52;;;;;;;6.17;59.17;98734.28;5031387;28;20045;-74
2024/01/30 11:24:42;;;;;;;0.35;0.35;;;;;;;6.21;58.94;98725.09;5033477;28;20048;-74
2024/01/30 11:27:10;;;;;;;0.60;0.60;;;;;;;6.22;58.65;98740.03;5035822;28;20072;-73
2024/01/30 11:29:41;;;;;;;0.57;0.57;;;;;;;6.23;58.89;98720.47;5044614;28;20043;-74
2024/01/30 11:32:08;;;;;;;0.50;0.50;;;;;;;6.24;59.05;98732.75;5039253;28;20061;-73
2024/01/30 11:34:41;;;;;;;0.55;0.55;;;;;;;6.34;58.72;98732.75;5030257;28;20469;-74
2024/01/30 11:37:12;;;;;;;0.40;0.40;;;;;;;6.49;58.56;98735.81;5044655;28;20049;-74
2024/01/30 11:39:41;;;;;;;0.40;0.40;;;;;;;6.62;58.39;98737.22;5041988;28;20096;-74
2024/01/30 11:42:09;;;;;;;0.40;0.40;;;;;;;6.77;58.15;98724.34;5045217;28;20099;-73
2024/01/30 11:44:37;;;;;;;0.50;0.50;;;;;;;6.87;57.99;98730.47;5032743;28;20111;-74
2024/01/30 11:47:06;;;;;;;1.10;1.10;;;;;;;7.03;58.13;98732.53;5043603;28;20571;-74